Time;durP1;ratioP1;P1;durP2;ratioP2;P2;SDS_P1;SDS_P2;PMS_P1;PMS_P2;Temp;Humidity;BMP_temperature;BMP_pressure;BME280_temperature;BME280_humidity;BME280_pressure;Samples;Min_cycle;Max_cycle;Signal;HPM_P1;HPM_P2
2022/12/31 00:01:46;;;;;;;36.08;21.35;;;24.40;99.90;;;;;;5138116;27;20065;-65
2022/12/31 00:04:13;;;;;;;23.42;15.25;;;24.40;99.90;;;;;;5138000;27;20063;-65
2022/12/31 00:06:39;;;;;;;22.23;13.70;;;24.40;99.90;;;;;;5137995;27;20053;-65
2022/12/31 00:09:07;;;;;;;27.33;15.35;;;24.50;99.90;;;;;;5137733;27;20386;-65
2022/12/31 00:11:35;;;;;;;27.58;16.90;;;24.50;99.90;;;;;;5137968;27;20067;-64
2022/12/31 00:14:02;;;;;;;21.40;16.27;;;24.50;99.90;;;;;;5137910;27;20533;-63
2022/12/31 00:16:40;;;;;;;30.10;21.35;;;24.60;99.90;;;;;;5137639;27;20061;-64
2022/12/31 00:19:10;;;;;;;27.23;20.30;;;24.60;99.90;;;;;;5138156;27;20458;-64
2022/12/31 00:21:37;;;;;;;26.77;18.48;;;24.70;99.90;;;;;;5137641;27;20102;-64
2022/12/31 00:24:05;;;;;;;29.92;19.00;;;24.70;99.90;;;;;;5137665;27;20102;-63
2022/12/31 00:26:33;;;;;;;24.42;17.77;;;24.80;99.90;;;;;;5137885;27;20468;-63
2022/12/31 00:29:01;;;;;;;38.53;25.48;;;24.80;99.90;;;;;;5137490;27;20072;-65
2022/12/31 00:31:32;;;;;;;30.08;19.48;;;24.80;99.90;;;;;;5137430;27;20072;-63
2022/12/31 00:33:59;;;;;;;22.70;18.02;;;24.90;99.90;;;;;;5137632;27;20023;-64
2022/12/31 00:36:33;;;;;;;21.27;16.98;;;25.00;99.90;;;;;;5137250;27;20031;-65
2022/12/31 00:39:02;;;;;;;22.15;15.32;;;25.00;99.90;;;;;;5137396;27;20038;-65
2022/12/31 00:41:28;;;;;;;26.33;15.13;;;25.10;99.90;;;;;;5137223;27;20034;-65
2022/12/31 00:43:55;;;;;;;22.38;13.90;;;25.00;99.90;;;;;;5137273;27;20015;-65
2022/12/31 00:46:22;;;;;;;20.10;13.90;;;25.10;99.90;;;;;;5137253;27;20023;-65
2022/12/31 00:48:49;;;;;;;18.55;14.10;;;25.20;99.90;;;;;;5137185;27;20023;-65
2022/12/31 00:51:18;;;;;;;17.60;12.85;;;25.20;99.90;;;;;;5136994;27;20060;-65
2022/12/31 00:53:45;;;;;;;19.80;13.07;;;25.20;99.90;;;;;;5137111;27;20392;-65
2022/12/31 00:56:15;;;;;;;19.02;12.38;;;25.30;99.90;;;;;;5137151;27;20405;-65
2022/12/31 00:58:42;;;;;;;53.53;39.20;;;25.30;99.90;;;;;;5137449;27;20456;-65
2022/12/31 01:01:14;;;;;;;24.17;15.30;;;25.40;99.90;;;;;;5137186;27;20499;-66
2022/12/31 01:03:40;;;;;;;20.02;16.17;;;25.40;99.90;;;;;;5137083;27;20462;-66
2022/12/31 01:06:07;;;;;;;28.90;21.35;;;25.50;99.90;;;;;;5136727;27;20030;-65
2022/12/31 01:08:34;;;;;;;45.58;35.30;;;25.50;99.90;;;;;;5137332;27;20080;-65
2022/12/31 01:13:58;;;;;;;15.38;13.38;;;25.60;99.90;;;;;;5136974;27;20026;-66
2022/12/31 01:16:27;;;;;;;18.70;14.10;;;25.60;99.90;;;;;;5136582;27;20084;-65
2022/12/31 01:18:57;;;;;;;22.98;13.00;;;25.60;99.90;;;;;;5118458;27;20383;-65
2022/12/31 01:21:23;;;;;;;28.05;22.85;;;25.60;99.90;;;;;;5136702;27;20028;-65
2022/12/31 01:23:50;;;;;;;15.43;11.60;;;25.60;99.90;;;;;;5136670;27;20038;-66
2022/12/31 01:26:18;;;;;;;19.83;12.40;;;25.60;99.90;;;;;;5136807;27;20027;-66
2022/12/31 01:28:45;;;;;;;15.90;12.13;;;25.70;99.90;;;;;;5136464;27;20105;-65
2022/12/31 01:31:15;;;;;;;17.98;12.65;;;25.70;99.90;;;;;;5136312;27;20023;-66
2022/12/31 01:33:42;;;;;;;16.10;12.88;;;25.80;99.90;;;;;;5136349;27;20035;-66
2022/12/31 01:36:15;;;;;;;19.50;13.55;;;25.80;99.90;;;;;;5136442;27;20034;-65
2022/12/31 01:38:42;;;;;;;16.98;13.48;;;25.80;99.90;;;;;;5136331;27;20030;-66
2022/12/31 01:41:19;;;;;;;18.05;13.27;;;25.90;99.90;;;;;;5136286;27;20476;-65
2022/12/31 01:43:58;;;;;;;17.73;15.13;;;25.90;99.90;;;;;;5136227;27;20054;-66
2022/12/31 01:46:36;;;;;;;25.35;15.32;;;25.90;99.90;;;;;;5136346;27;20079;-66
2022/12/31 01:49:16;;;;;;;18.15;13.27;;;25.80;99.90;;;;;;5136039;27;20495;-66
2022/12/31 01:51:48;;;;;;;20.55;14.57;;;25.80;99.90;;;;;;5136293;27;20110;-64
2022/12/31 01:54:17;;;;;;;18.65;12.65;;;25.90;99.90;;;;;;5136002;27;20126;-64
2022/12/31 01:56:45;;;;;;;119.30;94.28;;;26.00;99.90;;;;;;5136144;27;20031;-64
2022/12/31 01:59:13;;;;;;;33.45;25.88;;;26.10;99.90;;;;;;5136008;27;20027;-63
2022/12/31 02:01:40;;;;;;;18.02;11.73;;;26.20;99.90;;;;;;5135831;27;20027;-64
2022/12/31 02:04:10;;;;;;;14.07;11.32;;;26.30;99.90;;;;;;5136033;27;20015;-63
2022/12/31 02:06:45;;;;;;;21.45;13.18;;;26.40;99.90;;;;;;5136070;27;20019;-64
2022/12/31 02:09:12;;;;;;;18.90;11.82;;;26.50;99.90;;;;;;5135525;27;20352;-63
2022/12/31 02:11:39;;;;;;;20.38;14.10;;;26.50;99.90;;;;;;5126803;27;20035;-64
2022/12/31 02:14:10;;;;;;;22.75;13.20;;;26.50;99.90;;;;;;5115267;28;20062;-63
2022/12/31 02:16:43;;;;;;;24.85;15.07;;;26.50;99.90;;;;;;5114333;28;20497;-64
2022/12/31 02:19:20;;;;;;;20.83;14.38;;;26.60;99.90;;;;;;5114838;28;20027;-63
2022/12/31 02:21:52;;;;;;;16.00;12.48;;;26.70;99.90;;;;;;5114888;28;20026;-64
2022/12/31 02:24:43;;;;;;;20.40;13.05;;;26.70;99.90;;;;;;5115059;28;20051;-64
2022/12/31 02:27:10;;;;;;;15.57;11.60;;;26.90;99.90;;;;;;5012632;28;20042;-65
2022/12/31 02:29:57;;;;;;;16.92;11.50;;;27.00;99.90;;;;;;5012311;28;20096;-64
2022/12/31 02:32:41;;;;;;;21.15;12.85;;;27.10;99.90;;;;;;5012152;28;20034;-63
2022/12/31 02:35:27;;;;;;;18.38;12.85;;;27.10;99.90;;;;;;5012371;28;20030;-63
2022/12/31 02:38:18;;;;;;;21.60;15.07;;;27.20;99.90;;;;;;5010086;28;20124;-64
2022/12/31 02:40:46;;;;;;;22.30;12.70;;;27.30;99.90;;;;;;5011800;28;20041;-64
2022/12/31 02:43:13;;;;;;;15.60;11.10;;;27.30;99.90;;;;;;5012452;28;20363;-65
2022/12/31 02:45:45;;;;;;;14.43;10.52;;;27.30;99.90;;;;;;5012254;28;20064;-65
2022/12/31 02:48:38;;;;;;;17.70;11.45;;;27.30;99.90;;;;;;5012133;28;20510;-65
2022/12/31 02:51:11;;;;;;;15.75;10.57;;;27.40;99.90;;;;;;5011928;28;20379;-63
2022/12/31 02:54:08;;;;;;;14.00;10.63;;;27.40;99.90;;;;;;5012098;28;20462;-65
2022/12/31 02:56:40;;;;;;;14.63;10.70;;;27.50;99.90;;;;;;5011946;28;20109;-65
2022/12/31 03:02:18;;;;;;;21.15;10.38;;;27.50;99.90;;;;;;5011634;28;20392;-64
2022/12/31 03:04:56;;;;;;;103.60;74.40;;;27.60;99.90;;;;;;5084199;28;20039;-63
2022/12/31 03:07:27;;;;;;;16.40;11.15;;;27.60;99.90;;;;;;5114354;28;20042;-63
2022/12/31 03:09:54;;;;;;;15.60;11.55;;;27.70;99.90;;;;;;5113945;28;20432;-63
2022/12/31 03:14:58;;;;;;;14.68;9.35;;;27.80;99.90;;;;;;5114075;28;20016;-63
2022/12/31 03:17:26;;;;;;;14.70;9.48;;;27.90;99.90;;;;;;5113930;28;20072;-62
2022/12/31 03:22:42;;;;;;;23.50;14.45;;;28.00;99.90;;;;;;5113590;28;20488;-62
2022/12/31 03:28:02;;;;;;;14.80;8.53;;;28.30;99.90;;;;;;5113466;28;20020;-61
2022/12/31 03:30:29;;;;;;;19.63;13.85;;;28.30;99.90;;;;;;5114053;28;20067;-63
2022/12/31 03:32:56;;;;;;;19.25;13.82;;;28.20;99.90;;;;;;5113839;28;20019;-63
2022/12/31 03:35:24;;;;;;;15.45;10.35;;;28.20;99.90;;;;;;5113705;28;20107;-63
2022/12/31 03:37:51;;;;;;;19.35;11.02;;;28.20;99.90;;;;;;5113974;28;20068;-63
2022/12/31 03:40:21;;;;;;;18.02;11.65;;;28.30;99.90;;;;;;5113773;28;20027;-63
2022/12/31 03:42:47;;;;;;;24.55;11.30;;;28.40;99.90;;;;;;5113508;28;20510;-63
2022/12/31 03:45:14;;;;;;;13.27;8.82;;;28.40;99.90;;;;;;5113565;28;20077;-63
2022/12/31 03:47:41;;;;;;;15.65;8.88;;;28.40;99.90;;;;;;5113606;28;20473;-64
2022/12/31 03:50:10;;;;;;;11.20;7.93;;;28.60;99.90;;;;;;5113547;28;20045;-65
2022/12/31 03:52:37;;;;;;;16.70;8.55;;;28.60;99.90;;;;;;5113616;28;20051;-64
2022/12/31 03:55:04;;;;;;;20.70;11.25;;;28.60;99.90;;;;;;5113661;28;20030;-63
2022/12/31 03:57:31;;;;;;;14.70;7.90;;;28.70;99.90;;;;;;5111489;28;20027;-63
2022/12/31 03:59:58;;;;;;;34.63;24.85;;;28.70;99.90;;;;;;5111886;28;20477;-63
2022/12/31 04:02:25;;;;;;;23.38;16.92;;;28.80;99.90;;;;;;5113653;28;20039;-63
2022/12/31 04:04:51;;;;;;;16.80;9.05;;;28.80;99.90;;;;;;5113851;28;20054;-63
2022/12/31 04:07:18;;;;;;;12.18;7.93;;;28.80;99.90;;;;;;5113603;28;20444;-63
2022/12/31 04:09:44;;;;;;;13.88;10.05;;;28.80;99.90;;;;;;5113760;28;20057;-63
2022/12/31 04:12:11;;;;;;;9.95;7.25;;;28.80;99.90;;;;;;5113752;28;20019;-63
2022/12/31 04:14:37;;;;;;;19.10;11.23;;;28.90;99.90;;;;;;5113806;28;20028;-63
2022/12/31 04:17:04;;;;;;;11.13;6.63;;;28.90;99.90;;;;;;5113846;28;20061;-63
2022/12/31 04:19:30;;;;;;;10.02;7.20;;;29.00;99.90;;;;;;5113615;28;20015;-63
2022/12/31 04:21:57;;;;;;;14.25;8.40;;;28.90;99.90;;;;;;5113578;28;20023;-63
2022/12/31 04:24:23;;;;;;;15.45;8.98;;;28.90;99.90;;;;;;5113154;22;20113;-62
2022/12/31 04:26:50;;;;;;;12.70;7.15;;;28.90;99.90;;;;;;5092720;28;20538;-63
2022/12/31 04:29:16;;;;;;;8.10;6.03;;;28.90;99.90;;;;;;5092849;28;20032;-63
2022/12/31 04:31:43;;;;;;;39.90;27.95;;;28.90;99.90;;;;;;5093026;28;20026;-62
2022/12/31 04:34:09;;;;;;;9.98;7.30;;;28.90;99.90;;;;;;5092708;28;20023;-62
2022/12/31 04:36:36;;;;;;;11.13;8.32;;;28.90;99.90;;;;;;5092664;28;20441;-63
2022/12/31 04:39:02;;;;;;;34.92;21.80;;;28.90;99.90;;;;;;5092927;28;20027;-63
2022/12/31 04:41:29;;;;;;;53.90;39.45;;;28.90;99.90;;;;;;5095913;28;20073;-63
2022/12/31 04:43:58;;;;;;;63.75;42.78;;;29.00;99.90;;;;;;5096891;28;20384;-62
2022/12/31 04:46:27;;;;;;;9.85;7.57;;;29.10;99.90;;;;;;5096433;28;20020;-63
2022/12/31 04:48:54;;;;;;;16.67;7.55;;;29.20;99.90;;;;;;5096499;28;20024;-63
2022/12/31 04:51:21;;;;;;;12.35;7.32;;;29.20;99.90;;;;;;5096553;28;20173;-63
2022/12/31 04:53:48;;;;;;;9.25;6.00;;;29.20;99.90;;;;;;5096741;28;20484;-62
2022/12/31 04:56:15;;;;;;;11.55;6.63;;;29.20;99.90;;;;;;5095213;28;20040;-63
2022/12/31 04:58:42;;;;;;;13.60;6.95;;;29.20;99.90;;;;;;5085576;28;20141;-64
2022/12/31 05:01:08;;;;;;;12.90;6.95;;;29.20;99.90;;;;;;5096607;28;20027;-64
2022/12/31 05:03:35;;;;;;;12.32;5.63;;;29.30;99.90;;;;;;5095905;28;20039;-63
2022/12/31 05:06:05;;;;;;;12.10;5.80;;;29.30;99.90;;;;;;5089645;28;20032;-63
2022/12/31 05:08:32;;;;;;;13.77;6.50;;;29.30;99.90;;;;;;5094269;28;20020;-62
2022/12/31 05:10:59;;;;;;;9.57;5.90;;;29.40;99.90;;;;;;5098257;28;20028;-66
2022/12/31 05:13:26;;;;;;;9.77;5.88;;;29.40;99.90;;;;;;5098384;28;20031;-65
2022/12/31 05:15:53;;;;;;;8.30;5.18;;;29.40;99.90;;;;;;5097043;28;20434;-64
2022/12/31 05:18:20;;;;;;;24.40;15.70;;;29.40;99.90;;;;;;5096421;28;20029;-64
2022/12/31 05:20:47;;;;;;;25.73;17.83;;;29.40;99.90;;;;;;5096706;28;20115;-64
2022/12/31 05:23:16;;;;;;;16.00;9.43;;;29.60;99.90;;;;;;5088102;28;20047;-65
2022/12/31 05:25:45;;;;;;;17.50;11.25;;;29.70;99.90;;;;;;5079806;28;20043;-63
2022/12/31 05:28:12;;;;;;;8.60;4.90;;;29.80;99.90;;;;;;5087434;28;20077;-63
2022/12/31 05:30:38;;;;;;;9.18;4.20;;;29.90;99.90;;;;;;5096635;28;20024;-64
2022/12/31 05:33:05;;;;;;;21.08;17.33;;;29.90;99.90;;;;;;5096461;28;20372;-64
2022/12/31 05:35:31;;;;;;;11.07;7.65;;;29.90;99.90;;;;;;5080744;28;20031;-63
2022/12/31 05:38:00;;;;;;;9.52;7.78;;;29.90;99.90;;;;;;5073974;28;20029;-65
2022/12/31 05:40:27;;;;;;;5.82;4.10;;;29.90;99.90;;;;;;5075622;28;20029;-63
2022/12/31 05:42:54;;;;;;;6.50;3.85;;;30.00;99.90;;;;;;5076018;28;20230;-63
2022/12/31 05:45:21;;;;;;;6.47;3.97;;;30.10;99.90;;;;;;5063341;28;20048;-62
2022/12/31 05:47:47;;;;;;;7.15;3.95;;;30.20;99.90;;;;;;5058939;28;20433;-62
2022/12/31 05:50:15;;;;;;;13.10;11.70;;;30.20;99.90;;;;;;5090838;28;20081;-64
2022/12/31 05:52:42;;;;;;;15.45;11.35;;;30.30;99.90;;;;;;5082164;28;20134;-63
2022/12/31 05:55:10;;;;;;;11.05;5.35;;;30.40;99.90;;;;;;5098001;28;20024;-64
2022/12/31 05:57:37;;;;;;;35.85;29.83;;;30.60;99.90;;;;;;5097806;28;20026;-61
2022/12/31 06:00:05;;;;;;;7.05;5.80;;;30.70;99.90;;;;;;5082357;28;20019;-62
2022/12/31 06:02:32;;;;;;;13.05;7.88;;;30.70;99.90;;;;;;5078916;28;20036;-61
2022/12/31 06:04:58;;;;;;;11.88;4.93;;;30.80;99.90;;;;;;5084655;28;20484;-64
2022/12/31 06:07:25;;;;;;;8.32;4.03;;;30.80;99.90;;;;;;5086774;28;20126;-63
2022/12/31 06:09:51;;;;;;;8.07;4.80;;;30.90;99.90;;;;;;5082066;28;20020;-62
2022/12/31 06:12:18;;;;;;;6.82;5.03;;;30.90;99.90;;;;;;5073490;28;20035;-62
2022/12/31 06:14:44;;;;;;;8.25;3.72;;;31.00;99.90;;;;;;5083968;28;20036;-63
2022/12/31 06:17:11;;;;;;;8.50;3.60;;;30.90;99.90;;;;;;5081134;28;20024;-62
2022/12/31 06:19:37;;;;;;;7.07;3.85;;;30.90;99.90;;;;;;5085886;28;20486;-64
2022/12/31 06:22:04;;;;;;;10.57;6.15;;;30.80;99.90;;;;;;5077968;28;20039;-62
2022/12/31 06:24:30;;;;;;;10.82;6.28;;;30.80;99.90;;;;;;5086140;28;20032;-63
2022/12/31 06:26:57;;;;;;;4.03;3.53;;;30.90;99.90;;;;;;5085912;28;20024;-64
2022/12/31 06:29:23;;;;;;;5.97;3.38;;;31.00;99.90;;;;;;5081313;28;20066;-63
2022/12/31 06:31:50;;;;;;;12.90;4.45;;;31.10;99.90;;;;;;5086670;28;20090;-64
2022/12/31 06:34:16;;;;;;;7.45;5.22;;;31.20;99.90;;;;;;5083554;28;20034;-63
2022/12/31 06:36:43;;;;;;;6.70;4.35;;;31.20;99.90;;;;;;5085970;28;20020;-64
2022/12/31 06:39:09;;;;;;;9.07;5.05;;;31.20;99.90;;;;;;5084356;28;20408;-62
2022/12/31 06:41:36;;;;;;;6.40;4.32;;;31.20;99.90;;;;;;5085207;28;20122;-62
2022/12/31 06:44:02;;;;;;;30.48;21.20;;;31.30;99.90;;;;;;5084752;28;20056;-62
2022/12/31 06:46:29;;;;;;;20.98;13.25;;;31.20;99.90;;;;;;5083174;28;20035;-62
2022/12/31 06:48:55;;;;;;;14.70;8.90;;;31.20;99.90;;;;;;5081853;28;20016;-63
2022/12/31 06:51:22;;;;;;;15.45;8.30;;;31.10;99.90;;;;;;5082013;28;20124;-63
2022/12/31 06:53:50;;;;;;;8.93;5.40;;;31.10;99.90;;;;;;5077198;28;20032;-63
2022/12/31 06:56:18;;;;;;;11.32;5.22;;;31.20;99.90;;;;;;5083586;28;20477;-63
2022/12/31 06:58:45;;;;;;;10.35;5.40;;;31.20;99.90;;;;;;5084178;28;20058;-66
2022/12/31 07:01:14;;;;;;;7.85;4.40;;;31.20;99.90;;;;;;5082517;28;20028;-65
2022/12/31 07:04:03;;;;;;;5.22;3.97;;;31.20;99.90;;;;;;5081943;28;20031;-64
2022/12/31 07:06:47;;;;;;;8.27;5.50;;;31.20;99.90;;;;;;5124617;22;20079;-64
2022/12/31 07:09:28;;;;;;;7.78;4.63;;;31.10;99.90;;;;;;5099192;28;20020;-63
2022/12/31 07:12:34;;;;;;;5.70;4.10;;;31.10;99.90;;;;;;5103154;28;20026;-64
2022/12/31 07:15:03;;;;;;;7.22;3.78;;;31.10;99.90;;;;;;5115362;22;20048;-64
2022/12/31 07:17:38;;;;;;;9.13;3.70;;;31.10;99.90;;;;;;5094471;28;20028;-63
2022/12/31 07:20:10;;;;;;;8.10;4.32;;;31.00;99.90;;;;;;5102838;28;20066;-64
2022/12/31 07:22:36;;;;;;;;;;;31.00;99.90;;;;;;5098651;28;20376;-63
2022/12/31 07:25:05;;;;;;;10.90;3.72;;;31.10;99.90;;;;;;5084787;28;19954;-65
2022/12/31 07:27:42;;;;;;;15.95;4.82;;;31.10;99.90;;;;;;5085422;28;20016;-64
2022/12/31 07:30:35;;;;;;;6.03;3.67;;;31.10;99.90;;;;;;5082842;28;20104;-62
2022/12/31 07:33:15;;;;;;;8.35;3.78;;;31.10;99.90;;;;;;5082278;28;20036;-64
2022/12/31 07:35:43;;;;;;;9.70;7.93;;;31.10;99.90;;;;;;5082153;28;20033;-64
2022/12/31 07:38:18;;;;;;;12.07;5.70;;;31.20;99.90;;;;;;5075208;28;20100;-67
2022/12/31 07:41:16;;;;;;;9.48;6.57;;;31.20;99.90;;;;;;5078910;28;20021;-66
2022/12/31 07:44:06;;;;;;;11.30;5.45;;;31.20;99.90;;;;;;5074959;28;20025;-64
2022/12/31 07:46:46;;;;;;;6.78;4.95;;;31.20;99.90;;;;;;5079893;28;20021;-64
2022/12/31 07:49:13;;;;;;;9.10;4.35;;;31.20;99.90;;;;;;5082650;28;20197;-67
2022/12/31 07:51:40;;;;;;;10.43;4.38;;;31.20;99.90;;;;;;5074757;28;20446;-65
2022/12/31 07:54:08;;;;;;;6.75;4.35;;;31.30;99.90;;;;;;5073916;28;20035;-68
2022/12/31 07:56:34;;;;;;;9.88;5.57;;;31.30;99.90;;;;;;5082217;28;20024;-66
2022/12/31 07:59:18;;;;;;;15.77;8.55;;;31.30;99.90;;;;;;5086500;28;20207;-67
2022/12/31 08:01:58;;;;;;;19.85;11.48;;;31.30;99.90;;;;;;5081370;28;20021;-67
2022/12/31 08:04:41;;;;;;;13.43;9.05;;;31.30;99.90;;;;;;5076147;28;20078;-62
2022/12/31 08:07:09;;;;;;;28.85;18.85;;;31.20;99.90;;;;;;5074997;28;20095;-63
2022/12/31 08:09:42;;;;;;;28.80;22.05;;;31.30;99.90;;;;;;5074865;28;20472;-67
2022/12/31 08:12:08;;;;;;;18.90;13.65;;;31.30;99.90;;;;;;5074697;28;20063;-66
2022/12/31 08:14:43;;;;;;;64.07;32.22;;;31.30;99.90;;;;;;5074892;28;20076;-64
2022/12/31 08:17:13;;;;;;;43.30;20.63;;;31.30;99.90;;;;;;5079028;28;20056;-68
2022/12/31 08:19:41;;;;;;;14.43;9.43;;;31.30;99.90;;;;;;5078531;28;20025;-65
2022/12/31 08:22:18;;;;;;;14.48;7.93;;;31.30;99.90;;;;;;5079045;28;20050;-67
2022/12/31 08:24:55;;;;;;;12.18;7.20;;;31.30;99.90;;;;;;5079053;28;20029;-65
2022/12/31 08:27:30;;;;;;;11.65;6.20;;;31.30;99.90;;;;;;5078895;28;20013;-65
2022/12/31 08:30:09;;;;;;;13.60;9.32;;;31.20;99.90;;;;;;5078141;28;20449;-64
2022/12/31 08:32:48;;;;;;;10.30;5.30;;;31.30;99.90;;;;;;5078535;28;20024;-64
2022/12/31 08:35:40;;;;;;;12.65;7.28;;;31.20;99.90;;;;;;5078518;28;20059;-64
2022/12/31 08:38:46;;;;;;;10.18;7.05;;;31.20;99.90;;;;;;5078268;28;20032;-66
2022/12/31 08:41:38;;;;;;;20.70;9.57;;;31.10;99.90;;;;;;5078399;28;20056;-66
2022/12/31 08:44:14;;;;;;;16.42;9.70;;;31.10;99.90;;;;;;5078127;28;20071;-64
2022/12/31 08:47:09;;;;;;;17.10;10.73;;;31.10;99.90;;;;;;5077258;28;20103;-65
2022/12/31 08:49:36;;;;;;;18.38;10.50;;;31.10;99.90;;;;;;5077131;28;20424;-64
2022/12/31 08:52:03;;;;;;;23.20;12.98;;;31.20;99.90;;;;;;5077111;28;20033;-65
2022/12/31 08:54:30;;;;;;;18.63;10.15;;;31.20;99.90;;;;;;5077496;28;20043;-66
2022/12/31 08:57:16;;;;;;;13.63;7.40;;;31.20;99.90;;;;;;5077207;28;20040;-66
2022/12/31 09:00:02;;;;;;;14.57;9.65;;;31.20;99.90;;;;;;5077051;28;20120;-65
2022/12/31 09:02:40;;;;;;;24.25;16.33;;;31.20;99.90;;;;;;5077288;28;20037;-67
2022/12/31 09:05:18;;;;;;;24.13;15.15;;;31.20;99.90;;;;;;5073064;28;20142;-69
2022/12/31 09:07:51;;;;;;;24.40;16.73;;;31.20;99.90;;;;;;5077989;28;20029;-66
2022/12/31 09:10:21;;;;;;;18.52;13.00;;;31.20;99.90;;;;;;5077491;28;20024;-65
2022/12/31 09:12:57;;;;;;;16.13;9.85;;;31.20;99.90;;;;;;5077346;28;20021;-66
2022/12/31 09:15:32;;;;;;;12.80;8.27;;;31.20;99.90;;;;;;5076983;28;20454;-65
2022/12/31 09:17:59;;;;;;;19.83;13.18;;;31.10;99.90;;;;;;5077465;28;20468;-66
2022/12/31 09:20:31;;;;;;;20.85;11.90;;;31.20;99.90;;;;;;5077188;28;20029;-65
2022/12/31 09:22:59;;;;;;;15.68;9.77;;;31.20;99.90;;;;;;5075935;28;20036;-64
2022/12/31 09:25:27;;;;;;;20.92;10.48;;;31.10;99.90;;;;;;5076780;28;20054;-65
2022/12/31 09:28:14;;;;;;;18.48;13.20;;;31.10;99.90;;;;;;5076578;28;20028;-65
2022/12/31 09:30:56;;;;;;;16.13;9.50;;;31.10;99.90;;;;;;5076947;28;20024;-66
2022/12/31 09:33:33;;;;;;;17.90;10.10;;;31.10;99.90;;;;;;5077230;28;20074;-67
2022/12/31 09:36:05;;;;;;;17.65;9.82;;;31.10;99.90;;;;;;5076700;28;20052;-66
2022/12/31 09:38:55;;;;;;;16.10;8.73;;;31.20;99.90;;;;;;5074803;28;20024;-67
2022/12/31 09:41:31;;;;;;;17.10;7.97;;;31.20;99.90;;;;;;5077292;28;20108;-65
2022/12/31 09:44:19;;;;;;;12.43;7.95;;;31.20;99.90;;;;;;5077471;28;20021;-68
2022/12/31 09:46:55;;;;;;;11.68;7.50;;;31.20;99.90;;;;;;5076494;28;20024;-66
2022/12/31 09:49:53;;;;;;;20.25;12.45;;;31.20;99.90;;;;;;5076924;28;20056;-65
2022/12/31 09:52:40;;;;;;;28.35;19.00;;;31.20;99.90;;;;;;5076494;28;20032;-64
2022/12/31 09:55:49;;;;;;;25.42;14.85;;;31.20;99.90;;;;;;5080321;28;20052;-68
2022/12/31 09:58:35;;;;;;;36.00;19.30;;;31.10;99.90;;;;;;4992620;28;20054;-66
2022/12/31 10:01:12;;;;;;;34.55;22.88;;;31.00;99.90;;;;;;4937894;29;20130;-66
2022/12/31 10:04:10;;;;;;;24.73;17.20;;;31.10;99.90;;;;;;4936236;29;20066;-61
2022/12/31 10:06:51;;;;;;;17.48;10.00;;;31.00;99.90;;;;;;4888163;29;20047;-66
2022/12/31 10:09:39;;;;;;;16.65;10.07;;;31.00;99.90;;;;;;4889540;29;20037;-64
2022/12/31 10:12:15;;;;;;;24.30;15.15;;;31.00;99.90;;;;;;4880364;29;20503;-65
2022/12/31 10:15:03;;;;;;;25.30;16.83;;;31.00;99.90;;;;;;4880180;29;20183;-66
2022/12/31 10:17:32;;;;;;;24.50;14.90;;;31.00;99.90;;;;;;4894467;29;20040;-65
2022/12/31 10:20:05;;;;;;;23.38;13.68;;;31.00;99.90;;;;;;4898743;29;20032;-65
2022/12/31 10:22:45;;;;;;;22.38;14.30;;;31.00;99.90;;;;;;4898184;29;20313;-63
2022/12/31 10:25:22;;;;;;;23.05;11.30;;;31.00;99.90;;;;;;4898765;29;20041;-66
2022/12/31 10:28:13;;;;;;;24.30;12.80;;;31.00;99.90;;;;;;4889484;29;20044;-62
2022/12/31 10:30:47;;;;;;;18.42;11.82;;;30.90;99.90;;;;;;4917737;29;20517;-67
2022/12/31 10:33:34;;;;;;;25.33;15.90;;;30.90;99.90;;;;;;4917370;29;20067;-65
2022/12/31 10:36:14;;;;;;;27.00;16.95;;;30.90;99.90;;;;;;4918217;29;20039;-65
2022/12/31 10:38:55;;;;;;;26.67;17.35;;;30.90;99.90;;;;;;4963886;28;20541;-65
2022/12/31 10:41:41;;;;;;;29.33;18.45;;;30.90;99.90;;;;;;4989042;28;20113;-64
2022/12/31 10:44:29;;;;;;;27.67;17.02;;;30.90;99.90;;;;;;4994075;28;20031;-63
2022/12/31 10:47:17;;;;;;;30.25;17.85;;;30.90;99.90;;;;;;4994140;28;20030;-67
2022/12/31 10:49:59;;;;;;;35.88;24.15;;;30.90;99.90;;;;;;5014241;28;20041;-64
2022/12/31 10:52:46;;;;;;;36.00;25.70;;;30.80;99.90;;;;;;5055171;28;20115;-64
2022/12/31 10:55:23;;;;;;;27.33;14.80;;;30.90;99.90;;;;;;5064513;28;20071;-65
2022/12/31 10:57:58;;;;;;;31.00;16.77;;;30.80;99.90;;;;;;5072593;28;20056;-63
2022/12/31 11:00:29;;;;;;;42.22;23.55;;;30.80;99.90;;;;;;5075304;28;20032;-65
2022/12/31 11:03:17;;;;;;;29.20;17.00;;;30.80;99.90;;;;;;5067235;28;20228;-62
2022/12/31 11:05:46;;;;;;;23.02;13.70;;;30.70;99.90;;;;;;5052371;23;20074;-63
2022/12/31 11:08:24;;;;;;;26.80;14.43;;;30.70;99.90;;;;;;5089148;28;20054;-64
2022/12/31 11:11:10;;;;;;;29.48;17.92;;;30.70;99.90;;;;;;5079766;28;20056;-65
2022/12/31 11:13:56;;;;;;;54.33;40.38;;;30.60;99.90;;;;;;5088806;28;20081;-64
2022/12/31 11:16:53;;;;;;;73.22;53.00;;;30.60;99.90;;;;;;5095852;28;20024;-65
2022/12/31 11:19:36;;;;;;;67.75;46.03;;;30.50;99.90;;;;;;5096216;28;20477;-65
2022/12/31 11:22:15;;;;;;;51.60;32.03;;;30.50;99.90;;;;;;5096094;28;20062;-66
2022/12/31 11:25:02;;;;;;;55.25;39.08;;;30.40;99.90;;;;;;5074082;28;20044;-64
2022/12/31 11:27:49;;;;;;;50.13;27.55;;;30.40;99.90;;;;;;5012588;28;20176;-65
2022/12/31 11:30:40;;;;;;;41.08;22.90;;;30.30;99.90;;;;;;5012042;28;20498;-65
2022/12/31 11:33:27;;;;;;;45.53;29.65;;;30.30;99.90;;;;;;5008046;28;20042;-64
2022/12/31 11:35:56;;;;;;;47.88;25.00;;;30.20;99.90;;;;;;5012428;28;20033;-65
2022/12/31 11:38:31;;;;;;;36.78;19.98;;;30.20;99.90;;;;;;5010141;28;20381;-66
2022/12/31 11:40:59;;;;;;;35.88;21.75;;;30.20;99.90;;;;;;5010932;28;20034;-66
2022/12/31 11:43:37;;;;;;;35.75;22.27;;;30.10;99.90;;;;;;5011834;28;20049;-64
2022/12/31 11:46:19;;;;;;;32.53;21.98;;;30.10;99.90;;;;;;5009675;28;20034;-64
2022/12/31 11:48:56;;;;;;;30.67;21.08;;;30.00;99.90;;;;;;4995044;28;20029;-64
2022/12/31 11:51:37;;;;;;;35.28;20.73;;;30.10;99.90;;;;;;5009082;28;20046;-65
2022/12/31 11:54:24;;;;;;;34.10;22.75;;;30.00;99.90;;;;;;5011893;28;20394;-65
2022/12/31 11:57:00;;;;;;;68.25;46.88;;;30.00;99.90;;;;;;5011410;28;20076;-65
2022/12/31 11:59:26;;;;;;;48.13;34.38;;;30.00;99.90;;;;;;5011624;28;20030;-64
2022/12/31 12:01:57;;;;;;;71.35;47.03;;;30.00;99.90;;;;;;5011709;28;20060;-65
2022/12/31 12:04:24;;;;;;;32.33;21.15;;;30.00;99.90;;;;;;5018606;28;20039;-64
2022/12/31 12:06:52;;;;;;;46.42;35.63;;;29.90;99.90;;;;;;5053528;28;20025;-65
2022/12/31 12:09:28;;;;;;;46.00;34.45;;;29.90;99.90;;;;;;5051844;28;20025;-64
2022/12/31 12:12:05;;;;;;;52.90;35.95;;;29.90;99.90;;;;;;5054397;28;20028;-66
2022/12/31 12:14:34;;;;;;;35.65;23.30;;;29.90;99.90;;;;;;5064975;28;20445;-65
2022/12/31 12:17:02;;;;;;;38.63;23.52;;;29.80;99.90;;;;;;5073352;28;20039;-66
2022/12/31 12:19:31;;;;;;;32.83;22.38;;;29.80;99.90;;;;;;5073402;28;20047;-66
2022/12/31 12:21:58;;;;;;;43.22;23.35;;;29.80;99.90;;;;;;5073263;28;20036;-66
2022/12/31 12:24:28;;;;;;;97.53;65.32;;;29.70;99.90;;;;;;5073808;28;20021;-67
2022/12/31 12:26:56;;;;;;;56.28;36.95;;;29.80;99.90;;;;;;5072944;28;20032;-65
2022/12/31 12:29:29;;;;;;;65.38;43.78;;;29.70;99.90;;;;;;5072931;28;20025;-62
2022/12/31 12:31:57;;;;;;;72.60;49.30;;;29.70;99.90;;;;;;5072891;28;20024;-62
2022/12/31 12:34:28;;;;;;;65.72;43.72;;;29.70;99.90;;;;;;5073343;28;20570;-61
2022/12/31 12:36:55;;;;;;;134.30;94.72;;;29.70;99.90;;;;;;5073157;28;20497;-61
2022/12/31 12:39:25;;;;;;;59.10;40.97;;;29.60;99.90;;;;;;5072918;28;20027;-62
2022/12/31 12:42:04;;;;;;;56.28;33.53;;;29.60;99.90;;;;;;5073166;28;20024;-63
2022/12/31 12:44:31;;;;;;;36.42;24.50;;;29.60;99.90;;;;;;5073141;28;20028;-63
2022/12/31 12:47:00;;;;;;;43.65;29.42;;;29.50;99.90;;;;;;5070379;28;20095;-64
2022/12/31 12:49:28;;;;;;;36.88;24.70;;;29.50;99.90;;;;;;5063017;28;20102;-63
2022/12/31 12:51:55;;;;;;;38.22;23.23;;;29.50;99.90;;;;;;5060524;28;20047;-65
2022/12/31 12:54:30;;;;;;;36.10;22.70;;;29.50;99.90;;;;;;5071527;28;20017;-65
2022/12/31 12:57:08;;;;;;;40.67;25.20;;;29.40;99.90;;;;;;5071791;28;20492;-64
2022/12/31 12:59:36;;;;;;;41.03;25.35;;;29.40;99.90;;;;;;5071897;28;20024;-64
2022/12/31 13:02:23;;;;;;;46.45;25.90;;;29.30;99.90;;;;;;5074648;28;20033;-63
2022/12/31 13:04:59;;;;;;;38.65;24.40;;;29.30;99.90;;;;;;5076357;28;20051;-65
2022/12/31 13:07:33;;;;;;;42.20;26.60;;;29.30;99.90;;;;;;5075946;28;20496;-66
2022/12/31 13:10:05;;;;;;;46.10;27.77;;;29.30;99.90;;;;;;5076354;28;20036;-65
2022/12/31 13:12:45;;;;;;;37.60;24.95;;;29.20;99.90;;;;;;5076369;28;20024;-65
2022/12/31 13:15:43;;;;;;;40.00;24.35;;;29.10;99.90;;;;;;5076128;28;20025;-64
2022/12/31 13:18:21;;;;;;;41.00;24.40;;;29.10;99.90;;;;;;5076260;28;20089;-65